44WI weather

Stoiber Airport
Spencer, Wisconsin, United States

Public forecast

Using degrees Fahrenheit for public forecast. Weather courtesy of forecast.io.

Closest aviation weather report (METAR) to Stoiber Airport

Closest report is Marshfield Municipal Airport, 11.7 nm (21.6 km) SE. Retrieved 2020/06/04 21:54 UTC (41 minutes ago):

KMFI 042154Z AUTO 32009KT 10SM CLR 28/12 A2978 RMK AO2 SLP079 T02780122

Closest aviation forecast (TAF) to Stoiber Airport

Closest forecast is Central Wisconsin Airport, 30.6 nm (56.7 km) E. Retrieved 2020/06/04 18:36 UTC (4 hours ago):

TAF KCWA 041735Z 0418/0518 25007KT P6SM SCT200 FM050000 VRB03KT P6SM SCT080 BKN120 FM050900 VRB03KT 6SM -TSRA SCT030 BKN050CB FM051200 30005KT 6SM -SHRA BKN035 FM051400 34007KT P6SM BKN040